createdAt,value
2018-12-29T00:02:13.173Z,24.27
2018-12-29T00:04:41.859Z,25.20
2018-12-29T00:07:10.545Z,24.30
2018-12-29T00:09:39.333Z,24.90
2018-12-29T00:12:08.019Z,23.37
2018-12-29T00:14:36.808Z,23.27
2018-12-29T00:17:05.494Z,24.70
2018-12-29T00:19:34.281Z,23.60
2018-12-29T00:22:02.971Z,22.50
2018-12-29T00:24:31.759Z,24.77
2018-12-29T00:27:00.442Z,22.80
2018-12-29T00:29:29.229Z,22.00
2018-12-29T00:31:57.914Z,22.80
2018-12-29T00:34:26.600Z,23.57
2018-12-29T00:36:55.390Z,22.47
2018-12-29T00:39:24.077Z,24.37
2018-12-29T00:41:52.966Z,24.07
2018-12-29T00:44:21.753Z,24.97
2018-12-29T00:46:50.543Z,23.03
2018-12-29T00:49:19.331Z,23.10
2018-12-29T00:51:48.118Z,20.97
2018-12-29T00:54:16.905Z,22.97
2018-12-29T00:56:45.695Z,22.13
2018-12-29T00:59:14.483Z,22.67
2018-12-29T01:01:43.271Z,22.93
2018-12-29T01:04:12.162Z,23.70
2018-12-29T01:06:40.745Z,22.77
2018-12-29T01:09:09.533Z,22.47
2018-12-29T01:11:38.427Z,24.87
2018-12-29T01:14:07.211Z,26.87
2018-12-29T01:16:36.001Z,26.10
2018-12-29T01:19:04.789Z,26.07
2018-12-29T01:21:33.576Z,26.47
2018-12-29T01:24:02.262Z,26.63
2018-12-29T01:26:31.051Z,26.30
2018-12-29T01:28:59.748Z,26.10
2018-12-29T01:31:28.524Z,26.37
2018-12-29T01:33:57.212Z,27.97
2018-12-29T01:36:26.001Z,27.87
2018-12-29T01:38:54.788Z,26.30
2018-12-29T01:41:23.575Z,27.87
2018-12-29T01:43:52.363Z,27.80
2018-12-29T01:46:21.153Z,28.13
2018-12-29T01:48:49.939Z,28.10
2018-12-29T01:51:18.727Z,29.40
2018-12-29T01:53:48.336Z,29.53
2018-12-29T01:56:17.329Z,28.27
2018-12-29T01:58:46.012Z,28.50
2018-12-29T02:01:14.800Z,28.00
2018-12-29T02:03:43.590Z,28.50
2018-12-29T02:06:12.275Z,27.70
2018-12-29T02:08:41.062Z,28.80
2018-12-29T02:11:09.750Z,27.40
2018-12-29T02:13:38.536Z,28.03
2018-12-29T02:16:07.325Z,27.30
2018-12-29T02:18:36.113Z,27.90
2018-12-29T02:21:04.902Z,28.80
2018-12-29T02:23:33.690Z,26.60
2018-12-29T02:26:02.479Z,28.20
2018-12-29T02:28:31.270Z,28.87
2018-12-29T02:30:59.950Z,28.40
2018-12-29T02:33:28.943Z,27.83
2018-12-29T02:35:57.636Z,29.63
2018-12-29T02:38:26.419Z,28.97
2018-12-29T02:40:55.214Z,28.83
2018-12-29T02:43:23.993Z,26.90
2018-12-29T02:45:52.783Z,25.93
2018-12-29T02:48:21.570Z,27.97
2018-12-29T02:50:50.255Z,26.43
2018-12-29T02:53:19.046Z,27.53
2018-12-29T02:55:47.731Z,26.10
2018-12-29T02:58:16.523Z,27.53
2018-12-29T03:00:45.203Z,28.57
2018-12-29T03:03:13.991Z,26.13
2018-12-29T03:05:42.678Z,25.73
2018-12-29T03:08:11.465Z,26.00
2018-12-29T03:10:40.255Z,27.00
2018-12-29T03:13:09.042Z,26.40
2018-12-29T03:15:41.642Z,27.80
2018-12-29T03:18:08.258Z,25.87
2018-12-29T03:20:37.045Z,26.07
2018-12-29T03:23:05.833Z,25.60
2018-12-29T03:25:34.620Z,24.80
2018-12-29T03:28:03.307Z,23.40
2018-12-29T03:30:32.096Z,26.37
2018-12-29T03:33:00.885Z,26.80
2018-12-29T03:35:29.569Z,26.90
2018-12-29T03:37:58.472Z,26.40
2018-12-29T03:40:27.145Z,25.10
2018-12-29T03:42:56.139Z,27.33
2018-12-29T03:45:24.925Z,28.10
2018-12-29T03:47:53.816Z,27.73
2018-12-29T03:50:22.604Z,26.53
2018-12-29T03:52:51.393Z,28.60
2018-12-29T03:55:20.183Z,26.17
2018-12-29T03:57:48.970Z,27.77
2018-12-29T04:00:17.757Z,27.87
2018-12-29T04:02:46.443Z,28.87
2018-12-29T04:05:15.235Z,28.63
2018-12-29T04:07:43.916Z,28.40
2018-12-29T04:10:15.158Z,30.50
2018-12-29T04:12:46.715Z,27.60
2018-12-29T04:15:15.502Z,26.63
2018-12-29T04:17:44.293Z,28.53
2018-12-29T04:20:13.078Z,29.80
2018-12-29T04:22:41.774Z,29.90
2018-12-29T04:25:10.554Z,27.83
2018-12-29T04:27:39.340Z,29.53
2018-12-29T04:30:08.130Z,28.20
2018-12-29T04:32:36.917Z,29.17
2018-12-29T04:35:06.114Z,27.83
2018-12-29T04:37:34.904Z,30.27
2018-12-29T04:40:03.794Z,29.27
2018-12-29T04:42:32.587Z,27.40
2018-12-29T04:45:01.374Z,28.63
2018-12-29T04:47:30.056Z,28.60
2018-12-29T04:49:58.843Z,28.87
2018-12-29T04:52:27.533Z,29.53
2018-12-29T04:54:56.319Z,28.77
2018-12-29T04:57:25.106Z,28.13
2018-12-29T04:59:53.893Z,27.40
2018-12-29T05:02:22.580Z,28.03
2018-12-29T05:04:51.368Z,27.90
2018-12-29T05:07:20.055Z,28.77
2018-12-29T05:09:48.844Z,29.53
2018-12-29T05:12:17.732Z,30.90
2018-12-29T05:14:46.520Z,29.60
2018-12-29T05:17:15.308Z,28.90
2018-12-29T05:19:43.996Z,28.23
2018-12-29T05:22:12.783Z,29.73
2018-12-29T05:24:41.671Z,27.07
2018-12-29T05:27:10.460Z,28.37
2018-12-29T05:29:39.146Z,28.57
2018-12-29T05:32:07.934Z,28.33
2018-12-29T05:34:36.622Z,30.70
2018-12-29T05:37:05.409Z,28.43
2018-12-29T05:39:34.096Z,28.70
2018-12-29T05:42:02.883Z,27.47
2018-12-29T05:44:31.568Z,25.17
2018-12-29T05:47:00.360Z,26.17
2018-12-29T05:49:29.145Z,26.73
2018-12-29T05:51:57.934Z,28.37
2018-12-29T05:54:26.722Z,27.87
2018-12-29T05:56:55.508Z,27.60
2018-12-29T05:59:24.297Z,27.23
2018-12-29T06:01:53.086Z,29.27
2018-12-29T06:04:21.830Z,25.20
2018-12-29T06:06:50.560Z,27.63
2018-12-29T06:09:19.347Z,28.63
2018-12-29T06:11:48.136Z,28.73
2018-12-29T06:14:16.819Z,27.93
2018-12-29T06:16:45.610Z,28.87
2018-12-29T06:19:14.402Z,28.20
2018-12-29T06:21:43.186Z,27.80
2018-12-29T06:24:11.869Z,28.23
2018-12-29T06:26:40.659Z,29.40
2018-12-29T06:29:09.344Z,27.70
2018-12-29T06:31:38.032Z,26.03
2018-12-29T06:34:06.722Z,27.40
2018-12-29T06:36:35.506Z,27.00
2018-12-29T06:39:05.830Z,25.80
2018-12-29T06:41:34.616Z,27.60
2018-12-29T06:44:03.304Z,27.33
2018-12-29T06:46:35.169Z,29.00
2018-12-29T06:49:02.722Z,29.30
2018-12-29T06:51:31.714Z,28.40
2018-12-29T06:54:00.400Z,29.00
2018-12-29T06:56:29.188Z,28.97
2018-12-29T06:58:57.876Z,26.73
2018-12-29T07:01:26.662Z,27.63
2018-12-29T07:03:55.348Z,28.50
2018-12-29T07:06:24.141Z,27.50
2018-12-29T07:08:52.923Z,29.20
2018-12-29T07:11:21.719Z,29.60
2018-12-29T07:13:50.503Z,27.73
2018-12-29T07:16:19.289Z,27.93
2018-12-29T07:18:48.077Z,30.60
2018-12-29T07:21:16.866Z,31.73
2018-12-29T07:23:45.904Z,27.87
2018-12-29T07:26:14.549Z,27.33
2018-12-29T07:28:43.332Z,28.73
2018-12-29T07:31:11.913Z,28.10
2018-12-29T07:33:40.703Z,27.97
2018-12-29T07:36:09.391Z,26.63
2018-12-29T07:38:38.176Z,25.30
2018-12-29T07:41:06.965Z,26.17
2018-12-29T07:43:35.754Z,27.37
2018-12-29T07:46:04.542Z,26.57
2018-12-29T07:48:33.328Z,24.47
2018-12-29T07:51:02.016Z,27.33
2018-12-29T07:53:30.802Z,25.33
2018-12-29T07:55:59.488Z,28.23
2018-12-29T07:58:28.277Z,27.13
2018-12-29T08:00:57.063Z,27.33
2018-12-29T08:03:26.160Z,25.13
2018-12-29T08:05:54.949Z,27.20
2018-12-29T08:08:23.633Z,25.97
2018-12-29T08:10:52.421Z,25.13
2018-12-29T08:13:21.119Z,24.07
2018-12-29T08:15:49.895Z,26.40
2018-12-29T08:18:18.686Z,25.97
2018-12-29T08:20:47.473Z,25.90
2018-12-29T08:23:16.259Z,24.97
2018-12-29T08:25:44.948Z,26.97
2018-12-29T08:28:13.733Z,29.43
2018-12-29T08:30:42.522Z,26.50
2018-12-29T08:33:11.309Z,26.97
2018-12-29T08:35:40.098Z,25.30
2018-12-29T08:38:08.887Z,26.20
2018-12-29T08:40:37.683Z,26.73
2018-12-29T08:43:06.470Z,30.30
2018-12-29T08:45:35.250Z,33.60
2018-12-29T08:48:04.040Z,31.13
2018-12-29T08:50:32.828Z,28.03
2018-12-29T08:53:01.722Z,29.87
2018-12-29T08:55:30.517Z,40.70
2018-12-29T08:57:59.404Z,30.00
2018-12-29T09:00:28.081Z,29.23
2018-12-29T09:02:56.878Z,26.10
2018-12-29T09:05:25.657Z,28.63
2018-12-29T09:07:54.445Z,28.50
2018-12-29T09:10:23.237Z,26.03
2018-12-29T09:12:52.023Z,27.83
2018-12-29T09:15:20.812Z,26.80
2018-12-29T09:17:49.497Z,29.40
2018-12-29T09:20:18.182Z,25.63
2018-12-29T09:22:46.971Z,27.47
2018-12-29T09:25:15.759Z,25.30
2018-12-29T09:27:44.548Z,26.77
2018-12-29T09:30:13.543Z,24.77
2018-12-29T09:32:42.172Z,25.33
2018-12-29T09:35:10.808Z,24.97
2018-12-29T09:37:39.596Z,23.13
2018-12-29T09:40:08.286Z,23.23
2018-12-29T09:42:37.378Z,21.77
2018-12-29T09:45:06.379Z,22.43
2018-12-29T09:47:35.160Z,21.87
2018-12-29T09:50:04.153Z,21.97
2018-12-29T09:52:32.941Z,22.70
2018-12-29T09:55:01.733Z,22.30
2018-12-29T09:57:30.516Z,24.40
2018-12-29T09:59:59.203Z,24.37
2018-12-29T10:02:27.999Z,24.83
2018-12-29T10:04:56.777Z,23.30
2018-12-29T10:07:25.567Z,22.40
2018-12-29T10:09:54.354Z,21.03
2018-12-29T10:12:23.051Z,19.93
2018-12-29T10:14:51.692Z,21.67
2018-12-29T10:17:26.792Z,21.07
2018-12-29T10:19:50.623Z,21.43
2018-12-29T10:22:19.253Z,20.87
2018-12-29T10:24:47.991Z,23.90
2018-12-29T10:27:16.585Z,20.80
2018-12-29T10:29:45.242Z,22.63
2018-12-29T10:32:13.852Z,20.43
2018-12-29T10:34:42.501Z,21.90
2018-12-29T10:37:11.104Z,21.40
2018-12-29T10:39:39.914Z,21.40
2018-12-29T10:42:08.703Z,22.80
2018-12-29T10:44:37.490Z,22.83
2018-12-29T10:47:06.280Z,22.30
2018-12-29T10:49:35.071Z,21.07
2018-12-29T10:52:03.772Z,21.03
2018-12-29T10:54:32.847Z,21.13
2018-12-29T10:57:01.547Z,20.50
2018-12-29T10:59:30.429Z,20.33
2018-12-29T11:02:11.549Z,20.00
2018-12-29T11:04:42.070Z,20.03
2018-12-29T11:07:10.748Z,20.80
2018-12-29T11:09:39.708Z,18.43
2018-12-29T11:12:09.829Z,20.43
2018-12-29T11:14:38.614Z,20.80
2018-12-29T11:17:07.492Z,21.00
2018-12-29T11:19:38.342Z,22.40
2018-12-29T11:22:07.129Z,25.27
2018-12-29T11:24:37.442Z,23.00
2018-12-29T11:27:06.225Z,22.70
2018-12-29T11:29:34.858Z,23.47
2018-12-29T11:32:03.625Z,23.77
2018-12-29T11:34:35.884Z,23.47
2018-12-29T11:37:04.577Z,22.73
2018-12-29T11:39:33.252Z,25.20
2018-12-29T11:42:01.818Z,24.77
2018-12-29T11:44:30.507Z,23.90
2018-12-29T11:46:59.159Z,25.07
2018-12-29T11:49:27.838Z,23.57
2018-12-29T11:51:56.408Z,22.67
2018-12-29T11:54:25.338Z,23.00
2018-12-29T11:56:54.414Z,23.77
2018-12-29T11:59:23.085Z,24.30
2018-12-29T12:01:51.837Z,25.50
2018-12-29T12:04:20.624Z,22.70
2018-12-29T12:06:49.411Z,23.30
2018-12-29T12:09:18.206Z,22.97
2018-12-29T12:11:46.987Z,22.47
2018-12-29T12:14:15.776Z,23.20
2018-12-29T12:16:44.568Z,22.13
2018-12-29T12:19:13.267Z,23.37
2018-12-29T12:21:41.837Z,23.27
2018-12-29T12:24:10.477Z,21.20
2018-12-29T12:26:39.053Z,24.17
2018-12-29T12:29:07.708Z,22.30
2018-12-29T12:31:38.960Z,24.40
2018-12-29T12:34:07.962Z,21.43
2018-12-29T12:36:37.122Z,22.40
2018-12-29T12:39:07.015Z,21.30
2018-12-29T12:41:36.131Z,21.33
2018-12-29T12:44:04.818Z,20.60
2018-12-29T12:46:33.614Z,21.10
2018-12-29T12:49:02.535Z,19.53
2018-12-29T12:51:31.208Z,19.73
2018-12-29T12:53:59.861Z,20.13
2018-12-29T12:56:28.462Z,21.20
2018-12-29T12:58:57.243Z,20.50
2018-12-29T13:01:26.333Z,19.67
2018-12-29T13:03:55.158Z,19.33
2018-12-29T13:06:23.976Z,17.90
2018-12-29T13:08:52.800Z,18.70
2018-12-29T13:11:21.589Z,21.20
2018-12-29T13:13:50.376Z,19.70
2018-12-29T13:16:19.064Z,19.10
2018-12-29T13:18:47.855Z,18.13
2018-12-29T13:21:16.642Z,18.00
2018-12-29T13:23:47.304Z,19.13
2018-12-29T13:26:20.670Z,18.20
2018-12-29T13:28:51.107Z,18.80
2018-12-29T13:31:19.705Z,18.63
2018-12-29T13:33:48.345Z,17.30
2018-12-29T13:36:16.963Z,18.37
2018-12-29T13:38:45.634Z,18.10
2018-12-29T13:41:14.417Z,19.03
2018-12-29T13:43:46.514Z,19.10
2018-12-29T13:46:24.283Z,19.13
2018-12-29T13:48:52.968Z,16.80
2018-12-29T13:51:21.653Z,18.37
2018-12-29T13:53:50.445Z,18.30
2018-12-29T13:56:19.229Z,18.10
2018-12-29T13:58:48.019Z,17.20
2018-12-29T14:01:16.806Z,17.37
2018-12-29T14:03:45.594Z,17.87
2018-12-29T14:06:14.384Z,18.77
2018-12-29T14:08:43.274Z,19.47
2018-12-29T14:11:12.062Z,19.03
2018-12-29T14:13:40.953Z,21.10
2018-12-29T14:16:09.637Z,18.10
2018-12-29T14:18:38.327Z,19.50
2018-12-29T14:21:07.522Z,18.90
2018-12-29T14:23:36.309Z,19.30
2018-12-29T14:26:04.994Z,18.80
2018-12-29T14:28:33.692Z,18.37
2018-12-29T14:31:02.283Z,18.40
2018-12-29T14:33:31.361Z,19.77
2018-12-29T14:36:00.053Z,17.50
2018-12-29T14:38:28.837Z,19.07
2018-12-29T14:40:57.620Z,18.60
2018-12-29T14:43:26.411Z,19.33
2018-12-29T14:45:55.302Z,19.30
2018-12-29T14:48:24.089Z,20.23
2018-12-29T14:50:52.774Z,20.87
2018-12-29T14:53:21.564Z,21.10
2018-12-29T14:55:50.350Z,22.10
2018-12-29T14:58:19.138Z,21.30
2018-12-29T15:00:47.926Z,21.53
2018-12-29T15:03:20.366Z,21.97
2018-12-29T15:05:49.190Z,20.90
2018-12-29T15:08:17.984Z,21.40
2018-12-29T15:10:46.663Z,21.50
2018-12-29T15:13:15.652Z,25.53
2018-12-29T15:15:44.349Z,20.00
2018-12-29T15:18:13.336Z,20.90
2018-12-29T15:20:48.472Z,21.07
2018-12-29T15:23:17.362Z,19.10
2018-12-29T15:25:46.047Z,19.10
2018-12-29T15:28:14.745Z,21.60
2018-12-29T15:30:43.802Z,19.53
2018-12-29T15:33:12.516Z,18.80
2018-12-29T15:35:41.098Z,19.13
2018-12-29T15:38:10.099Z,19.60
2018-12-29T15:40:38.688Z,18.30
2018-12-29T15:43:07.295Z,19.43
2018-12-29T15:45:36.366Z,17.70
2018-12-29T15:48:05.004Z,17.63
2018-12-29T15:50:34.916Z,16.97
2018-12-29T15:53:04.068Z,17.27
2018-12-29T15:55:32.660Z,17.60
2018-12-29T15:58:01.633Z,18.60
2018-12-29T16:00:30.239Z,18.00
2018-12-29T16:02:58.843Z,16.40
2018-12-29T16:05:27.469Z,16.90
2018-12-29T16:07:56.553Z,15.70
2018-12-29T16:10:25.258Z,17.30
2018-12-29T16:12:54.047Z,16.10
2018-12-29T16:15:23.243Z,16.90
2018-12-29T16:17:52.145Z,17.70
2018-12-29T16:20:20.921Z,17.17
2018-12-29T16:22:49.942Z,18.60
2018-12-29T16:25:18.540Z,17.17
2018-12-29T16:27:47.230Z,17.87
2018-12-29T16:30:15.904Z,16.10
2018-12-29T16:32:44.925Z,16.37
2018-12-29T16:35:13.532Z,15.30
2018-12-29T16:37:42.174Z,16.40
2018-12-29T16:40:10.768Z,13.60
2018-12-29T16:42:39.606Z,13.80
2018-12-29T16:45:08.375Z,13.47
2018-12-29T16:47:37.009Z,12.20
2018-12-29T16:50:07.919Z,12.83
2018-12-29T16:52:36.602Z,11.87
2018-12-29T16:55:06.006Z,11.90
2018-12-29T16:57:34.795Z,11.37
2018-12-29T17:00:04.897Z,10.87
2018-12-29T17:02:33.598Z,10.40
2018-12-29T17:05:02.504Z,10.30
2018-12-29T17:07:31.105Z,11.93
2018-12-29T17:09:59.714Z,10.20
2018-12-29T17:12:28.328Z,10.30
2018-12-29T17:14:56.907Z,10.33
2018-12-29T17:17:25.536Z,9.10
2018-12-29T17:19:54.118Z,9.70
2018-12-29T17:22:22.872Z,9.00
2018-12-29T17:24:51.440Z,10.07
2018-12-29T17:27:20.101Z,8.90
2018-12-29T17:29:48.864Z,10.03
2018-12-29T17:32:17.529Z,9.30
2018-12-29T17:34:46.117Z,9.03
2018-12-29T17:37:14.750Z,8.93
2018-12-29T17:39:43.495Z,8.30
2018-12-29T17:42:12.154Z,8.93
2018-12-29T17:44:40.753Z,9.77
2018-12-29T17:47:09.428Z,7.90
2018-12-29T17:49:38.216Z,8.67
2018-12-29T17:52:07.211Z,9.77
2018-12-29T17:54:35.902Z,8.90
2018-12-29T17:57:04.683Z,8.67
2018-12-29T17:59:35.374Z,8.13
2018-12-29T18:02:04.077Z,8.13
2018-12-29T18:04:32.981Z,10.60
2018-12-29T18:07:01.678Z,10.53
2018-12-29T18:09:30.770Z,9.03
2018-12-29T18:11:59.542Z,10.17
2018-12-29T18:14:28.201Z,8.80
2018-12-29T18:16:56.875Z,9.53
2018-12-29T18:19:30.557Z,9.60
2018-12-29T18:21:55.842Z,9.03
2018-12-29T18:24:24.649Z,9.23
2018-12-29T18:26:53.418Z,9.57
2018-12-29T18:29:22.104Z,9.40
2018-12-29T18:31:51.198Z,9.60
2018-12-29T18:34:19.990Z,9.77
2018-12-29T18:36:48.775Z,9.83
2018-12-29T18:39:17.564Z,10.23
2018-12-29T18:41:46.349Z,9.10
2018-12-29T18:44:15.139Z,10.30
2018-12-29T18:46:43.819Z,10.77
2018-12-29T18:49:12.498Z,10.77
2018-12-29T18:51:41.069Z,11.60
2018-12-29T18:54:09.722Z,11.27
2018-12-29T18:56:45.361Z,11.07
2018-12-29T18:59:08.731Z,12.50
2018-12-29T19:01:37.309Z,12.53
2018-12-29T19:04:06.003Z,13.73
2018-12-29T19:06:34.595Z,14.03
2018-12-29T19:09:05.116Z,15.33
2018-12-29T19:11:34.089Z,14.33
2018-12-29T19:14:03.077Z,14.67
2018-12-29T19:16:31.676Z,15.07
2018-12-29T19:19:00.366Z,14.70
2018-12-29T19:21:28.994Z,16.73
2018-12-29T19:23:58.191Z,17.27
2018-12-29T19:26:27.312Z,17.20
2018-12-29T19:28:56.461Z,16.57
2018-12-29T19:31:25.038Z,18.37
2018-12-29T19:33:53.649Z,17.30
2018-12-29T19:36:22.233Z,17.67
2018-12-29T19:38:51.032Z,17.40
2018-12-29T19:41:20.280Z,17.73
2018-12-29T19:43:49.416Z,17.57
2018-12-29T19:46:18.383Z,24.13
2018-12-29T19:48:46.993Z,19.40
2018-12-29T19:51:15.584Z,18.90
2018-12-29T19:53:44.460Z,19.50
2018-12-29T19:56:13.038Z,18.57
2018-12-29T19:58:41.764Z,19.50
2018-12-29T20:01:10.336Z,19.67
2018-12-29T20:03:39.159Z,18.03
2018-12-29T20:06:12.266Z,19.47
2018-12-29T20:08:38.173Z,20.60
2018-12-29T20:11:06.775Z,18.53
2018-12-29T20:13:35.529Z,19.50
2018-12-29T20:16:04.116Z,20.77
2018-12-29T20:18:32.745Z,20.10
2018-12-29T20:21:01.734Z,18.90
2018-12-29T20:23:30.372Z,18.90
2018-12-29T20:25:58.938Z,18.70
2018-12-29T20:28:27.598Z,19.50
2018-12-29T20:30:56.205Z,19.57
2018-12-29T20:33:25.013Z,19.27
2018-12-29T20:35:53.692Z,20.03
2018-12-29T20:38:22.333Z,19.07
2018-12-29T20:40:50.935Z,18.10
2018-12-29T20:43:19.535Z,17.00
2018-12-29T20:45:48.121Z,17.20
2018-12-29T20:48:17.027Z,17.03
2018-12-29T20:50:45.995Z,17.67
2018-12-29T20:53:14.579Z,17.40
2018-12-29T20:55:43.185Z,15.87
2018-12-29T20:58:11.850Z,17.00
2018-12-29T21:00:40.734Z,15.10
2018-12-29T21:03:09.369Z,14.50
2018-12-29T21:05:37.942Z,17.03
2018-12-29T21:08:06.567Z,14.17
2018-12-29T21:10:35.160Z,15.87
2018-12-29T21:13:03.774Z,15.17
2018-12-29T21:15:32.364Z,15.60
2018-12-29T21:18:01.033Z,15.33
2018-12-29T21:20:29.650Z,15.57
2018-12-29T21:22:58.407Z,15.63
2018-12-29T21:25:26.982Z,15.63
2018-12-29T21:27:55.812Z,14.47
2018-12-29T21:30:24.390Z,14.47
2018-12-29T21:32:53.038Z,14.50
2018-12-29T21:35:21.615Z,14.17
2018-12-29T21:37:50.297Z,14.50
2018-12-29T21:40:18.869Z,14.43
2018-12-29T21:42:47.546Z,14.53
2018-12-29T21:45:16.136Z,15.03
2018-12-29T21:47:44.778Z,12.80
2018-12-29T21:50:13.436Z,13.23
2018-12-29T21:52:42.059Z,12.70
2018-12-29T21:55:11.060Z,13.23
2018-12-29T21:57:39.791Z,12.70
2018-12-29T22:00:09.747Z,12.87
2018-12-29T22:02:38.400Z,11.70
2018-12-29T22:05:07.046Z,12.17
2018-12-29T22:07:35.785Z,13.37
2018-12-29T22:10:06.001Z,11.63
2018-12-29T22:12:34.622Z,11.37
2018-12-29T22:15:03.198Z,11.83
2018-12-29T22:17:32.284Z,10.93
2018-12-29T22:20:00.981Z,11.10
2018-12-29T22:22:30.236Z,18.20
2018-12-29T22:24:59.022Z,12.00
2018-12-29T22:27:28.055Z,11.93
2018-12-29T22:29:58.357Z,13.63
2018-12-29T22:32:45.940Z,15.47
2018-12-29T22:35:14.668Z,10.57
2018-12-29T22:37:43.491Z,9.57
2018-12-29T22:40:13.329Z,9.17
2018-12-29T22:42:41.935Z,10.97
2018-12-29T22:45:10.825Z,10.57
2018-12-29T22:47:39.502Z,9.67
2018-12-29T22:50:08.869Z,8.93
2018-12-29T22:52:37.468Z,8.80
2018-12-29T22:55:06.124Z,9.50
2018-12-29T22:57:35.174Z,9.50
2018-12-29T23:00:04.378Z,10.90
2018-12-29T23:02:33.227Z,9.07
2018-12-29T23:05:01.866Z,10.10
2018-12-29T23:07:30.472Z,9.73
2018-12-29T23:09:59.085Z,9.50
2018-12-29T23:12:27.690Z,10.10
2018-12-29T23:14:56.858Z,9.67
2018-12-29T23:17:25.572Z,10.13
2018-12-29T23:19:54.290Z,9.30
2018-12-29T23:22:23.383Z,10.10
2018-12-29T23:24:51.956Z,9.50
2018-12-29T23:27:20.584Z,9.50
2018-12-29T23:29:49.153Z,8.70
2018-12-29T23:32:17.789Z,9.10
2018-12-29T23:34:46.383Z,8.20
2018-12-29T23:37:15.015Z,9.70
2018-12-29T23:39:43.609Z,8.50
2018-12-29T23:42:12.226Z,7.97
2018-12-29T23:44:40.795Z,9.70
2018-12-29T23:47:09.408Z,8.73
2018-12-29T23:49:38.011Z,9.03
2018-12-29T23:52:06.702Z,8.70
2018-12-29T23:54:35.293Z,8.20
2018-12-29T23:57:03.990Z,8.27
2018-12-29T23:59:32.578Z,7.90
